Polar Cod — V7VU4 — position and weather

sailwx.info

Track history (hours):
 
Tides and Currents Weather Stations Pressure Air Temp Water Temp Dewpoint Dewpoint Depression Visibility Wind Speed Wind Dir Waves Ship Positions

Polar Cod

Last reported at 2017-Aug-29 15:46 UTC. Time now 2017-Sep-23 02:23 UTC.
Position N 05°56' E 001°15'.
Warning: this ship's position is 24 days out of date.

Length 228 m; draft 13.8 m.

Type: Tanker. MMSI: 538004214.

Date/timePositionNaut miles runAvg speedWind from/ knotsBaromVisibWave heightAir tempDewpointWater temp
2017-Aug-29 15:46N 05°56' E 001°15'36 1.0
2017-Aug-28 04:05N 05°23' E 001°03'314.4
2017-Aug-28 03:54N 05°21' E 001°02'614.2
2017-Aug-28 03:31N 05°16' E 000°58'713.8
2017-Aug-28 03:01N 05°12' E 000°53'1214.2
2017-Aug-28 02:11N 05°07' E 000°42'314.1
2017-Aug-28 01:58N 05°06' E 000°39'614.2
2017-Aug-28 01:30N 05°03' E 000°34'814.1
2017-Aug-28 00:57N 04°60' E 000°26'614.0
2017-Aug-28 00:31N 04°57' E 000°21'1213.9
2017-Aug-27 23:38N 04°52' E 000°10'213.9
2017-Aug-27 23:30N 04°51' E 000°08'1214.1
2017-Aug-27 22:39N 04°46' W 000°03'  
2017-Aug-21 06:30N 27°31' W 015°17'714.5
2017-Aug-21 06:00N 27°38' W 015°13'714.8
2017-Aug-21 05:30N 27°45' W 015°10'714.3
2017-Aug-21 05:00N 27°51' W 015°07'714.1
2017-Aug-21 04:30N 27°58' W 015°05'713.8
2017-Aug-21 04:00N 28°04' W 015°02'713.8
2017-Aug-21 03:30N 28°11' W 014°59'713.7
2017-Aug-21 03:00N 28°17' W 014°56'713.7
2017-Aug-21 02:30N 28°24' W 014°54'713.5
2017-Aug-21 02:00N 28°30' W 014°52'814.1
2017-Aug-21 01:24N 28°38' W 014°50'614.1
2017-Aug-21 01:00N 28°44' W 014°48'714.2
2017-Aug-21 00:30N 28°51' W 014°46'714.1
2017-Aug-21 00:00N 28°58' W 014°44'714.1
2017-Aug-20 23:30N 29°04' W 014°43'713.8
2017-Aug-20 23:00N 29°11' W 014°41'713.5
2017-Aug-20 22:30N 29°18' W 014°39'713.5
2017-Aug-20 22:00N 29°24' W 014°37'713.4
2017-Aug-20 21:30N 29°31' W 014°36'713.6
2017-Aug-20 21:00N 29°38' W 014°34'713.5
2017-Aug-20 20:30N 29°44' W 014°32'713.6
2017-Aug-20 20:00N 29°51' W 014°31'713.9
2017-Aug-20 19:30N 29°58' W 014°29'713.8
2017-Aug-20 19:00N 30°04' W 014°27'713.6
2017-Aug-20 18:28N 30°11' W 014°25'713.8
2017-Aug-20 17:59N 30°18' W 014°24'713.8
2017-Aug-20 17:30N 30°24' W 014°22'713.9
2017-Aug-20 17:00N 30°31' W 014°20'713.9
2017-Aug-20 16:30N 30°38' W 014°18'714.0
2017-Aug-20 16:00N 30°45' W 014°16'714.1
2017-Aug-20 15:30N 30°52' W 014°14'1213.8
2017-Aug-20 14:37N 31°04' W 014°11'113.5
2017-Aug-20 14:30N 31°05' W 014°10'2513.7
2017-Aug-20 12:42N 31°29' W 014°04'313.9
2017-Aug-20 12:31N 31°32' W 014°03'713.9
2017-Aug-20 12:00N 31°39' W 014°01'713.8
2017-Aug-20 11:29N 31°46' W 013°59'714.0
2017-Aug-20 11:00N 31°52' W 013°58'813.9
2017-Aug-20 10:27N 31°60' W 013°56'713.8
2017-Aug-20 09:59N 32°06' W 013°54'713.8
2017-Aug-20 09:28N 32°13' W 013°52'713.9
2017-Aug-20 09:00N 32°19' W 013°50'713.7
2017-Aug-20 08:30N 32°26' W 013°49'713.5
2017-Aug-20 08:00N 32°32' W 013°47'713.6
2017-Aug-20 07:31N 32°39' W 013°45'713.5
2017-Aug-20 07:00N 32°45' W 013°43'813.7
2017-Aug-20 06:27N 32°53' W 013°41'1013.8
2017-Aug-20 05:42N 33°03' W 013°38'413.6
2017-Aug-20 05:23N 33°07' W 013°37'613.4
2017-Aug-20 04:58N 33°12' W 013°36'613.4
2017-Aug-20 04:30N 33°19' W 013°34'713.5
2017-Aug-20 04:00N 33°25' W 013°32'1013.3
2017-Aug-20 03:13N 33°35' W 013°29'913.4
2017-Aug-20 02:31N 33°45' W 013°27'013.3
2017-Aug-20 02:30N 33°45' W 013°27'1013.3
2017-Aug-20 01:47N 33°54' W 013°24'413.2
2017-Aug-20 01:30N 33°58' W 013°23'613.1
2017-Aug-20 01:01N 34°04' W 013°21'713.3
2017-Aug-20 00:27N 34°11' W 013°19'613.2
2017-Aug-20 00:00N 34°17' W 013°18'713.1
2017-Aug-19 23:30N 34°23' W 013°16'713.1
2017-Aug-19 23:01N 34°30' W 013°14'713.1
2017-Aug-19 22:30N 34°36' W 013°13'713.2
2017-Aug-19 22:01N 34°42' W 013°11'713.3
2017-Aug-19 21:30N 34°49' W 013°09'713.3
2017-Aug-19 21:00N 34°56' W 013°07'613.0
2017-Aug-19 20:31N 35°02' W 013°05'612.8
2017-Aug-19 20:00N 35°08' W 013°04'712.7
2017-Aug-19 19:30N 35°14' W 013°02'613.1
2017-Aug-19 19:00N 35°21' W 013°00'913.4
2017-Aug-19 18:17N 35°30' W 012°58'413.3
2017-Aug-19 17:59N 35°34' W 012°57'613.3
2017-Aug-19 17:30N 35°40' W 012°55'1113.1
2017-Aug-19 16:41N 35°51' W 012°51'  
Track history (hours):
 
Tides and Currents Weather Stations Pressure Air Temp Water Temp Dewpoint Dewpoint Depression Visibility Wind Speed Wind Dir Waves Ship Positions

Polar Cod

Last reported at 2017-Aug-29 15:46 UTC. Time now 2017-Sep-23 02:23 UTC.
Position N 05°56' E 001°15'.
Warning: this ship's position is 24 days out of date.

Length 228 m; draft 13.8 m.

Type: Tanker. MMSI: 538004214.

Date/timePositionNaut miles runAvg speedWind from/ knotsBaromVisibWave heightAir tempDewpointWater temp
2017-Aug-29 15:46N 05°56' E 001°15'36 1.0
2017-Aug-28 04:05N 05°23' E 001°03'314.4
2017-Aug-28 03:54N 05°21' E 001°02'614.2
2017-Aug-28 03:31N 05°16' E 000°58'713.8
2017-Aug-28 03:01N 05°12' E 000°53'1214.2
2017-Aug-28 02:11N 05°07' E 000°42'314.1
2017-Aug-28 01:58N 05°06' E 000°39'614.2
2017-Aug-28 01:30N 05°03' E 000°34'814.1
2017-Aug-28 00:57N 04°60' E 000°26'614.0
2017-Aug-28 00:31N 04°57' E 000°21'1213.9
2017-Aug-27 23:38N 04°52' E 000°10'213.9
2017-Aug-27 23:30N 04°51' E 000°08'1214.1
2017-Aug-27 22:39N 04°46' W 000°03'  
2017-Aug-21 06:30N 27°31' W 015°17'714.5
2017-Aug-21 06:00N 27°38' W 015°13'714.8
2017-Aug-21 05:30N 27°45' W 015°10'714.3
2017-Aug-21 05:00N 27°51' W 015°07'714.1
2017-Aug-21 04:30N 27°58' W 015°05'713.8
2017-Aug-21 04:00N 28°04' W 015°02'713.8
2017-Aug-21 03:30N 28°11' W 014°59'713.7
2017-Aug-21 03:00N 28°17' W 014°56'713.7
2017-Aug-21 02:30N 28°24' W 014°54'713.5
2017-Aug-21 02:00N 28°30' W 014°52'814.1
2017-Aug-21 01:24N 28°38' W 014°50'614.1
2017-Aug-21 01:00N 28°44' W 014°48'714.2
2017-Aug-21 00:30N 28°51' W 014°46'714.1
2017-Aug-21 00:00N 28°58' W 014°44'714.1
2017-Aug-20 23:30N 29°04' W 014°43'713.8
2017-Aug-20 23:00N 29°11' W 014°41'713.5
2017-Aug-20 22:30N 29°18' W 014°39'713.5
2017-Aug-20 22:00N 29°24' W 014°37'713.4
2017-Aug-20 21:30N 29°31' W 014°36'713.6
2017-Aug-20 21:00N 29°38' W 014°34'713.5
2017-Aug-20 20:30N 29°44' W 014°32'713.6
2017-Aug-20 20:00N 29°51' W 014°31'713.9
2017-Aug-20 19:30N 29°58' W 014°29'713.8
2017-Aug-20 19:00N 30°04' W 014°27'713.6
2017-Aug-20 18:28N 30°11' W 014°25'713.8
2017-Aug-20 17:59N 30°18' W 014°24'713.8
2017-Aug-20 17:30N 30°24' W 014°22'713.9
2017-Aug-20 17:00N 30°31' W 014°20'713.9
2017-Aug-20 16:30N 30°38' W 014°18'714.0
2017-Aug-20 16:00N 30°45' W 014°16'714.1
2017-Aug-20 15:30N 30°52' W 014°14'1213.8
2017-Aug-20 14:37N 31°04' W 014°11'113.5
2017-Aug-20 14:30N 31°05' W 014°10'2513.7
2017-Aug-20 12:42N 31°29' W 014°04'313.9
2017-Aug-20 12:31N 31°32' W 014°03'713.9
2017-Aug-20 12:00N 31°39' W 014°01'713.8
2017-Aug-20 11:29N 31°46' W 013°59'714.0
2017-Aug-20 11:00N 31°52' W 013°58'813.9
2017-Aug-20 10:27N 31°60' W 013°56'713.8
2017-Aug-20 09:59N 32°06' W 013°54'713.8
2017-Aug-20 09:28N 32°13' W 013°52'713.9
2017-Aug-20 09:00N 32°19' W 013°50'713.7
2017-Aug-20 08:30N 32°26' W 013°49'713.5
2017-Aug-20 08:00N 32°32' W 013°47'713.6
2017-Aug-20 07:31N 32°39' W 013°45'713.5
2017-Aug-20 07:00N 32°45' W 013°43'813.7
2017-Aug-20 06:27N 32°53' W 013°41'1013.8
2017-Aug-20 05:42N 33°03' W 013°38'413.6
2017-Aug-20 05:23N 33°07' W 013°37'613.4
2017-Aug-20 04:58N 33°12' W 013°36'613.4
2017-Aug-20 04:30N 33°19' W 013°34'713.5
2017-Aug-20 04:00N 33°25' W 013°32'1013.3
2017-Aug-20 03:13N 33°35' W 013°29'913.4
2017-Aug-20 02:31N 33°45' W 013°27'013.3
2017-Aug-20 02:30N 33°45' W 013°27'1013.3
2017-Aug-20 01:47N 33°54' W 013°24'413.2
2017-Aug-20 01:30N 33°58' W 013°23'613.1
2017-Aug-20 01:01N 34°04' W 013°21'713.3
2017-Aug-20 00:27N 34°11' W 013°19'613.2
2017-Aug-20 00:00N 34°17' W 013°18'713.1
2017-Aug-19 23:30N 34°23' W 013°16'713.1
2017-Aug-19 23:01N 34°30' W 013°14'713.1
2017-Aug-19 22:30N 34°36' W 013°13'713.2
2017-Aug-19 22:01N 34°42' W 013°11'713.3
2017-Aug-19 21:30N 34°49' W 013°09'713.3
2017-Aug-19 21:00N 34°56' W 013°07'613.0
2017-Aug-19 20:31N 35°02' W 013°05'612.8
2017-Aug-19 20:00N 35°08' W 013°04'712.7
2017-Aug-19 19:30N 35°14' W 013°02'613.1
2017-Aug-19 19:00N 35°21' W 013°00'913.4
2017-Aug-19 18:17N 35°30' W 012°58'413.3
2017-Aug-19 17:59N 35°34' W 012°57'613.3
2017-Aug-19 17:30N 35°40' W 012°55'1113.1
2017-Aug-19 16:41N 35°51' W 012°51'  

Dump ship's entire track history